Time;durP1;ratioP1;P1;durP2;ratioP2;P2;SDS_P1;SDS_P2;PMS_P1;PMS_P2;Temp;Humidity;BMP_temperature;BMP_pressure;BME280_temperature;BME280_humidity;BME280_pressure;Samples;Min_cycle;Max_cycle;Signal;HPM_P1;HPM_P2
2021/06/20 00:01:14;;;;;;;11.60;5.73;;;24.00;99.90;;;;;;5114126;28;20413;-87
2021/06/20 00:03:40;;;;;;;8.40;6.10;;;23.90;99.90;;;;;;5112295;28;20210;-88
2021/06/20 00:06:17;;;;;;;6.67;6.00;;;23.90;99.90;;;;;;5113825;28;20183;-87
2021/06/20 00:08:43;;;;;;;7.10;6.60;;;23.70;99.90;;;;;;5094420;28;20191;-87
2021/06/20 00:11:09;;;;;;;9.67;6.73;;;23.70;99.90;;;;;;5095582;28;20410;-87
2021/06/20 00:13:34;;;;;;;6.50;6.00;;;23.70;99.90;;;;;;5112710;28;20736;-87
2021/06/20 00:16:00;;;;;;;8.80;6.43;;;23.70;99.90;;;;;;5095438;28;20172;-87
2021/06/20 00:18:26;;;;;;;10.00;6.40;;;23.80;99.90;;;;;;5113555;28;20184;-87
2021/06/20 00:20:52;;;;;;;6.30;5.80;;;23.80;99.90;;;;;;5094582;28;20168;-87
2021/06/20 00:23:18;;;;;;;6.30;5.70;;;23.80;99.90;;;;;;5112973;28;20254;-87
2021/06/20 00:25:43;;;;;;;9.80;6.70;;;23.70;99.90;;;;;;5093904;28;20511;-86
2021/06/20 00:28:09;;;;;;;8.43;6.43;;;23.70;99.90;;;;;;5113317;28;20211;-87
2021/06/20 00:30:36;;;;;;;7.57;6.33;;;23.70;99.90;;;;;;5094374;28;20171;-86
2021/06/20 00:33:03;;;;;;;9.03;7.00;;;23.70;99.90;;;;;;5113368;28;20222;-86
2021/06/20 00:35:28;;;;;;;10.27;7.00;;;23.50;99.90;;;;;;5113244;28;20393;-86
2021/06/20 00:37:55;;;;;;;7.63;6.93;;;23.30;99.90;;;;;;5112379;28;20854;-87
2021/06/20 00:40:21;;;;;;;7.80;7.10;;;23.20;99.90;;;;;;5113229;28;20405;-87
2021/06/20 00:42:49;;;;;;;9.40;7.03;;;23.20;99.90;;;;;;5112063;28;20504;-87
2021/06/20 00:45:16;;;;;;;8.27;6.20;;;23.10;99.90;;;;;;5113105;28;20409;-87
2021/06/20 00:47:42;;;;;;;7.10;6.50;;;23.00;99.90;;;;;;5111950;28;20532;-87
2021/06/20 00:50:11;;;;;;;6.97;6.00;;;23.00;99.90;;;;;;5094395;28;20460;-86
2021/06/20 00:52:38;;;;;;;6.77;6.20;;;23.00;99.90;;;;;;5094316;28;20417;-86
2021/06/20 00:55:05;;;;;;;7.13;5.67;;;23.00;99.90;;;;;;5112728;28;20904;-86
2021/06/20 00:57:33;;;;;;;6.70;6.00;;;22.80;99.90;;;;;;5094826;28;20758;-87
2021/06/20 01:00:01;;;;;;;7.00;6.30;;;22.60;99.90;;;;;;5112522;28;20416;-86
2021/06/20 01:02:27;;;;;;;6.17;5.60;;;22.60;99.90;;;;;;5112031;28;20445;-86
2021/06/20 01:04:55;;;;;;;6.60;6.10;;;22.70;99.90;;;;;;5112028;28;21088;-87
2021/06/20 01:07:22;;;;;;;6.10;5.43;;;22.70;99.90;;;;;;5112759;28;20437;-87
2021/06/20 01:09:50;;;;;;;5.60;5.10;;;22.70;99.90;;;;;;5093773;28;20410;-87
2021/06/20 01:12:17;;;;;;;5.77;5.30;;;22.80;99.90;;;;;;5094517;28;20421;-87
2021/06/20 01:14:44;;;;;;;5.27;4.33;;;22.80;99.90;;;;;;5111854;28;20439;-87
2021/06/20 01:17:10;;;;;;;5.33;4.80;;;22.70;99.90;;;;;;5112701;28;20577;-87
2021/06/20 01:19:38;;;;;;;6.17;4.83;;;22.70;99.90;;;;;;5111904;28;20508;-86
2021/06/20 01:22:27;;;;;;;4.90;4.50;;;22.80;99.90;;;;;;5109389;28;20784;-87
2021/06/20 01:24:55;;;;;;;5.27;4.87;;;22.80;99.90;;;;;;5091308;28;20415;-87
2021/06/20 01:27:31;;;;;;;4.97;4.30;;;22.70;99.90;;;;;;5092241;28;20410;-86
2021/06/20 01:29:57;;;;;;;4.50;3.80;;;22.60;99.90;;;;;;5091504;28;20500;-87
2021/06/20 01:32:23;;;;;;;5.20;3.93;;;22.50;99.90;;;;;;5074150;28;20490;-86
2021/06/20 01:34:49;;;;;;;4.77;4.27;;;22.40;99.90;;;;;;5079423;28;20504;-86
2021/06/20 01:37:16;;;;;;;5.77;4.37;;;22.30;99.90;;;;;;5094365;28;20184;-86
2021/06/20 01:39:43;;;;;;;5.03;4.73;;;22.20;99.90;;;;;;5111758;28;20187;-86
2021/06/20 01:42:15;;;;;;;4.87;4.47;;;22.20;99.90;;;;;;5094081;28;20415;-87
2021/06/20 01:44:57;;;;;;;5.90;4.30;;;22.30;99.90;;;;;;5093694;28;20389;-86
2021/06/20 01:47:23;;;;;;;4.47;4.07;;;22.30;99.90;;;;;;5094256;28;20405;-86
2021/06/20 01:49:50;;;;;;;4.60;4.20;;;22.40;99.90;;;;;;5111181;28;20435;-86
2021/06/20 01:52:24;;;;;;;3.87;3.57;;;22.50;99.90;;;;;;5094238;28;20405;-87
2021/06/20 01:54:52;;;;;;;3.77;3.43;;;22.60;99.90;;;;;;5111400;28;20508;-87
2021/06/20 01:57:17;;;;;;;5.00;3.80;;;22.60;99.90;;;;;;5112572;28;20799;-87
2021/06/20 01:59:43;;;;;;;3.70;3.37;;;22.60;99.90;;;;;;5111134;28;20414;-86
2021/06/20 02:02:09;;;;;;;3.87;3.53;;;22.70;99.90;;;;;;5093579;28;20176;-87
2021/06/20 02:04:35;;;;;;;3.50;3.20;;;22.70;99.90;;;;;;5111999;28;20175;-87
2021/06/20 02:07:00;;;;;;;4.80;3.40;;;22.80;99.90;;;;;;5111535;28;20172;-86
2021/06/20 02:09:26;;;;;;;3.17;2.97;;;22.70;99.90;;;;;;5111894;28;20627;-87
2021/06/20 02:11:52;;;;;;;4.90;3.20;;;22.40;99.90;;;;;;5111365;28;20179;-87
2021/06/20 02:14:17;;;;;;;3.27;3.07;;;22.20;99.90;;;;;;5112301;28;20176;-87
2021/06/20 02:16:43;;;;;;;3.80;3.50;;;22.30;99.90;;;;;;5111301;28;20168;-86
2021/06/20 02:19:09;;;;;;;3.23;2.93;;;22.20;99.90;;;;;;5112076;28;20190;-87
2021/06/20 02:21:35;;;;;;;3.70;2.90;;;22.30;99.90;;;;;;5111678;28;20174;-86
2021/06/20 02:24:01;;;;;;;3.63;3.33;;;22.40;99.90;;;;;;5089672;28;20664;-87
2021/06/20 02:26:26;;;;;;;3.43;3.23;;;22.40;99.90;;;;;;5093893;28;20423;-87
2021/06/20 02:28:52;;;;;;;2.73;2.53;;;22.50;99.90;;;;;;5094930;28;20196;-86
2021/06/20 02:31:18;;;;;;;3.10;2.90;;;22.50;99.90;;;;;;5094339;28;20528;-86
2021/06/20 02:33:43;;;;;;;3.63;3.27;;;22.50;99.90;;;;;;5094230;28;20176;-86
2021/06/20 02:36:09;;;;;;;5.50;3.27;;;22.50;99.90;;;;;;5095134;28;20184;-86
2021/06/20 02:38:35;;;;;;;3.73;3.27;;;22.50;99.90;;;;;;5094733;28;20179;-86
2021/06/20 02:41:00;;;;;;;3.70;3.40;;;22.50;99.90;;;;;;5093010;28;20204;-86
2021/06/20 02:43:26;;;;;;;3.13;2.93;;;22.60;99.90;;;;;;5113362;28;20619;-86
2021/06/20 02:45:52;;;;;;;3.33;3.07;;;22.50;99.90;;;;;;5114499;28;20230;-87
2021/06/20 02:48:18;;;;;;;3.67;3.37;;;22.40;99.90;;;;;;5115089;28;20211;-86
2021/06/20 02:50:43;;;;;;;3.70;3.40;;;22.30;99.90;;;;;;5114544;28;20172;-86
2021/06/20 02:53:09;;;;;;;4.63;3.50;;;22.10;99.90;;;;;;5114778;28;20466;-88
2021/06/20 02:55:35;;;;;;;4.80;3.90;;;22.10;99.90;;;;;;5114984;28;20296;-87
2021/06/20 02:58:00;;;;;;;5.77;3.70;;;22.20;99.90;;;;;;5096264;28;20376;-87
2021/06/20 03:00:26;;;;;;;6.37;3.70;;;22.30;99.90;;;;;;5115123;28;20179;-87
2021/06/20 03:02:52;;;;;;;5.80;3.50;;;22.30;99.90;;;;;;5113764;28;20187;-87
2021/06/20 03:05:18;;;;;;;6.00;4.30;;;22.40;99.90;;;;;;5096778;28;20225;-87
2021/06/20 03:07:44;;;;;;;5.67;3.90;;;22.50;99.90;;;;;;5096015;28;20259;-86
2021/06/20 03:10:10;;;;;;;4.83;4.50;;;22.60;99.90;;;;;;5114957;28;20394;-87
2021/06/20 03:12:36;;;;;;;5.27;4.70;;;22.50;99.90;;;;;;5114982;28;20184;-87
2021/06/20 03:15:03;;;;;;;5.87;5.30;;;22.40;99.90;;;;;;5114104;28;20442;-87
2021/06/20 03:17:29;;;;;;;8.13;4.67;;;22.40;99.90;;;;;;5114775;28;20449;-86
2021/06/20 03:19:55;;;;;;;5.70;4.90;;;22.40;99.90;;;;;;5113457;28;20927;-87
2021/06/20 03:22:21;;;;;;;5.90;5.40;;;22.50;99.90;;;;;;5114488;28;20182;-87
2021/06/20 03:24:50;;;;;;;5.07;4.67;;;22.50;99.90;;;;;;5095626;28;20547;-86
2021/06/20 03:27:17;;;;;;;5.20;4.70;;;22.60;99.90;;;;;;5114464;28;20451;-86
2021/06/20 03:29:46;;;;;;;7.60;5.43;;;22.60;99.90;;;;;;5095992;28;20426;-86
2021/06/20 03:32:13;;;;;;;6.17;5.57;;;22.60;99.90;;;;;;5114626;28;20923;-86
2021/06/20 03:34:39;;;;;;;9.47;5.27;;;22.60;99.90;;;;;;5114253;28;20908;-86
2021/06/20 03:37:05;;;;;;;8.40;5.63;;;22.60;99.90;;;;;;5112623;28;20424;-86
2021/06/20 03:39:32;;;;;;;6.37;5.30;;;22.60;99.90;;;;;;5096118;28;20500;-87
2021/06/20 03:41:58;;;;;;;6.40;5.80;;;22.60;99.90;;;;;;5088983;28;20429;-86
2021/06/20 03:44:24;;;;;;;8.87;5.97;;;22.50;99.90;;;;;;5093872;28;20410;-87
2021/06/20 03:46:50;;;;;;;5.83;5.43;;;22.50;99.90;;;;;;5074991;28;20168;-87
2021/06/20 03:49:16;;;;;;;6.03;5.00;;;22.50;99.90;;;;;;5093797;28;20219;-86
2021/06/20 03:51:42;;;;;;;6.77;5.40;;;22.60;99.90;;;;;;5093653;28;20177;-86
2021/06/20 03:54:07;;;;;;;6.00;5.50;;;22.60;99.90;;;;;;5093097;28;20177;-86
2021/06/20 03:56:33;;;;;;;6.73;5.97;;;22.60;99.90;;;;;;5093222;28;20468;-87
2021/06/20 03:59:00;;;;;;;8.90;5.87;;;22.60;99.90;;;;;;5093076;28;20241;-86
2021/06/20 04:01:25;;;;;;;6.17;5.50;;;22.70;99.90;;;;;;5099071;28;20178;-86
2021/06/20 04:03:51;;;;;;;6.10;5.50;;;22.60;99.90;;;;;;5112529;28;20417;-86
2021/06/20 04:06:17;;;;;;;12.73;6.30;;;22.60;99.90;;;;;;5113840;28;20246;-87
2021/06/20 04:08:43;;;;;;;8.00;5.47;;;22.60;99.90;;;;;;5113522;28;20232;-88
2021/06/20 04:11:09;;;;;;;6.50;5.90;;;22.70;99.90;;;;;;5094745;28;20172;-87
2021/06/20 04:13:34;;;;;;;5.63;5.20;;;22.70;99.90;;;;;;5100248;28;20956;-87
2021/06/20 04:16:00;;;;;;;5.93;5.33;;;22.70;99.90;;;;;;5092586;28;20183;-87
2021/06/20 04:18:26;;;;;;;6.30;5.70;;;22.70;99.90;;;;;;5092935;28;20187;-87
2021/06/20 04:20:51;;;;;;;5.10;4.70;;;22.70;99.90;;;;;;5092335;28;20533;-87
2021/06/20 04:23:17;;;;;;;7.80;5.43;;;22.70;99.90;;;;;;5093240;28;20179;-87
2021/06/20 04:25:43;;;;;;;6.40;5.80;;;22.70;99.90;;;;;;5093353;28;20569;-87
2021/06/20 04:28:08;;;;;;;7.20;5.47;;;22.70;99.90;;;;;;5104090;28;20241;-87
2021/06/20 04:30:34;;;;;;;6.03;5.30;;;22.70;99.90;;;;;;5113412;28;20172;-87
2021/06/20 04:33:00;;;;;;;5.47;5.07;;;22.70;99.90;;;;;;5094428;28;20168;-88
2021/06/20 04:35:26;;;;;;;5.03;4.63;;;22.60;99.90;;;;;;5094036;28;20516;-88
2021/06/20 04:37:52;;;;;;;5.40;5.00;;;22.60;99.90;;;;;;5112354;28;20183;-88
2021/06/20 04:40:22;;;;;;;5.90;5.40;;;22.60;99.90;;;;;;5113689;28;20641;-87
2021/06/20 04:43:06;;;;;;;5.77;5.17;;;22.60;99.90;;;;;;5094797;28;20164;-86
2021/06/20 04:45:32;;;;;;;5.70;5.30;;;22.60;99.90;;;;;;5113211;28;20933;-87
2021/06/20 04:47:58;;;;;;;6.80;5.87;;;22.60;99.90;;;;;;5093971;28;20456;-87
2021/06/20 04:50:24;;;;;;;6.10;5.60;;;22.60;99.90;;;;;;5112527;28;20634;-87
2021/06/20 04:52:49;;;;;;;6.70;5.70;;;22.70;99.90;;;;;;5111930;28;20421;-86
2021/06/20 04:55:15;;;;;;;5.23;4.90;;;22.70;99.90;;;;;;5112714;28;20227;-87
2021/06/20 04:57:42;;;;;;;6.67;6.00;;;22.80;99.90;;;;;;5113026;28;20167;-87
2021/06/20 05:00:09;;;;;;;12.33;5.90;;;22.80;99.90;;;;;;5093707;28;20209;-87
2021/06/20 05:02:36;;;;;;;7.90;5.20;;;22.80;99.90;;;;;;5094806;28;20408;-87
2021/06/20 05:05:03;;;;;;;8.43;5.07;;;22.70;99.90;;;;;;5111778;28;20413;-86
2021/06/20 05:07:29;;;;;;;6.07;5.57;;;22.70;99.90;;;;;;5112759;28;20417;-86
2021/06/20 05:09:55;;;;;;;5.80;5.40;;;22.70;99.90;;;;;;5111705;28;20904;-86
2021/06/20 05:12:21;;;;;;;5.23;4.80;;;22.70;99.90;;;;;;5094036;28;20639;-87
2021/06/20 05:14:47;;;;;;;5.83;5.23;;;22.70;99.90;;;;;;5094655;28;20175;-86
2021/06/20 05:17:15;;;;;;;6.20;5.70;;;22.70;99.90;;;;;;5094038;28;20167;-86
2021/06/20 05:19:41;;;;;;;5.47;5.07;;;22.70;99.90;;;;;;5094530;28;20732;-86
2021/06/20 05:22:09;;;;;;;6.30;5.70;;;22.60;99.90;;;;;;5093585;28;20739;-87
2021/06/20 05:24:36;;;;;;;5.80;5.40;;;22.60;99.90;;;;;;5111890;28;20885;-87
2021/06/20 05:27:02;;;;;;;5.83;5.33;;;22.70;99.90;;;;;;5111744;28;20417;-87
2021/06/20 05:29:27;;;;;;;5.33;4.93;;;22.80;99.90;;;;;;5112480;28;21031;-86
2021/06/20 05:31:53;;;;;;;5.23;4.93;;;22.70;99.90;;;;;;5111273;28;20408;-86
2021/06/20 05:34:19;;;;;;;5.70;5.10;;;22.80;99.90;;;;;;5112716;28;20594;-86
2021/06/20 05:36:45;;;;;;;5.20;4.80;;;22.70;99.90;;;;;;5112447;28;20167;-87
2021/06/20 05:39:10;;;;;;;5.23;4.83;;;22.80;99.90;;;;;;5093370;28;20179;-86
2021/06/20 05:41:36;;;;;;;5.67;5.30;;;22.90;99.90;;;;;;5112147;28;20258;-86
2021/06/20 05:44:02;;;;;;;5.60;5.20;;;22.80;99.90;;;;;;5076616;28;20686;-87
2021/06/20 05:46:30;;;;;;;6.60;5.17;;;22.80;99.90;;;;;;5094272;28;20642;-87
2021/06/20 05:48:56;;;;;;;7.00;6.00;;;22.90;99.90;;;;;;5111516;28;20502;-87
2021/06/20 05:51:21;;;;;;;4.67;4.37;;;23.00;99.90;;;;;;5094407;28;20409;-87
2021/06/20 05:53:47;;;;;;;4.10;3.90;;;23.00;99.90;;;;;;5112118;28;20183;-86
2021/06/20 05:56:13;;;;;;;4.80;4.50;;;23.00;99.90;;;;;;5111594;28;20230;-86
2021/06/20 05:58:39;;;;;;;5.00;4.60;;;23.00;99.90;;;;;;5112375;28;20179;-86
2021/06/20 06:01:04;;;;;;;5.10;4.80;;;23.00;99.90;;;;;;5110935;28;20199;-86
2021/06/20 06:03:34;;;;;;;4.60;4.27;;;22.90;99.90;;;;;;5079007;28;20255;-87
2021/06/20 06:06:00;;;;;;;4.63;4.33;;;22.80;99.90;;;;;;5100350;28;20168;-87
2021/06/20 06:08:26;;;;;;;5.77;4.97;;;22.80;99.90;;;;;;5116109;28;20985;-86
2021/06/20 06:10:53;;;;;;;5.33;4.90;;;22.80;99.90;;;;;;5097499;28;20410;-86
2021/06/20 06:13:19;;;;;;;5.47;4.77;;;22.80;99.90;;;;;;5115823;28;20168;-87
2021/06/20 06:15:45;;;;;;;5.00;4.57;;;22.80;99.90;;;;;;5116110;28;20412;-87
2021/06/20 06:18:10;;;;;;;5.33;5.03;;;22.80;99.90;;;;;;5096839;28;21236;-86
2021/06/20 06:20:36;;;;;;;4.70;4.30;;;22.80;99.90;;;;;;5115917;28;20605;-87
2021/06/20 06:23:03;;;;;;;4.77;4.47;;;22.80;99.90;;;;;;5096426;28;20536;-87
2021/06/20 06:25:28;;;;;;;4.70;4.30;;;22.80;99.90;;;;;;5115636;28;20445;-87
2021/06/20 06:27:54;;;;;;;4.73;4.43;;;22.90;99.90;;;;;;5114857;28;20503;-86
2021/06/20 06:30:21;;;;;;;4.80;4.40;;;22.90;99.90;;;;;;5113856;28;20659;-89
2021/06/20 06:32:48;;;;;;;5.20;4.80;;;22.90;99.90;;;;;;5109183;28;20417;-87
2021/06/20 06:35:15;;;;;;;4.93;4.53;;;22.90;99.90;;;;;;5112569;28;20444;-86
2021/06/20 06:37:40;;;;;;;5.43;4.93;;;22.80;99.90;;;;;;5114199;28;20429;-86
2021/06/20 06:40:09;;;;;;;4.57;4.27;;;22.80;99.90;;;;;;5112097;28;20828;-86
2021/06/20 06:42:35;;;;;;;3.87;3.57;;;22.80;99.90;;;;;;5095408;28;20587;-86
2021/06/20 06:45:01;;;;;;;8.47;5.17;;;22.90;99.90;;;;;;5084351;28;20919;-86
2021/06/20 06:47:28;;;;;;;4.70;4.40;;;23.10;99.90;;;;;;5115436;28;20402;-85
2021/06/20 06:49:54;;;;;;;4.93;4.53;;;23.20;99.90;;;;;;5095932;28;20572;-86
2021/06/20 06:52:19;;;;;;;4.80;4.50;;;23.30;99.90;;;;;;5096658;28;20494;-86
2021/06/20 06:54:52;;;;;;;5.60;5.20;;;23.40;99.90;;;;;;5112409;28;20444;-87
2021/06/20 06:57:19;;;;;;;4.90;4.60;;;23.50;99.90;;;;;;5101966;28;20207;-86
2021/06/20 06:59:45;;;;;;;5.40;4.97;;;23.50;99.80;;;;;;5097348;28;20611;-86
2021/06/20 07:02:11;;;;;;;4.47;4.17;;;23.70;99.90;;;;;;5096213;28;20418;-86
2021/06/20 07:04:37;;;;;;;6.40;4.50;;;23.80;99.70;;;;;;5116714;28;20776;-86
2021/06/20 07:07:03;;;;;;;4.93;4.57;;;23.90;98.90;;;;;;5108226;28;20417;-87
2021/06/20 07:09:29;;;;;;;4.90;4.43;;;23.90;98.20;;;;;;5076860;28;20206;-86
2021/06/20 07:11:55;;;;;;;5.20;4.83;;;24.00;98.70;;;;;;5094460;28;20414;-87
2021/06/20 07:14:21;;;;;;;5.07;4.57;;;24.00;99.30;;;;;;5094914;28;20176;-86
2021/06/20 07:16:46;;;;;;;4.17;3.87;;;24.10;98.60;;;;;;5076744;28;20177;-86
2021/06/20 07:19:12;;;;;;;4.60;4.30;;;24.20;97.80;;;;;;5100072;28;20203;-86
2021/06/20 07:21:39;;;;;;;4.83;4.57;;;24.30;98.10;;;;;;5114421;28;20182;-86
2021/06/20 07:24:05;;;;;;;4.87;4.53;;;24.30;97.00;;;;;;5114459;28;20194;-87
2021/06/20 07:26:31;;;;;;;5.37;4.97;;;24.30;98.10;;;;;;5114058;28;20422;-86
2021/06/20 07:28:57;;;;;;;4.90;4.60;;;24.40;97.80;;;;;;5095768;28;20468;-87
2021/06/20 07:31:23;;;;;;;4.83;4.63;;;24.50;97.60;;;;;;5096508;28;20417;-86
2021/06/20 07:33:49;;;;;;;5.70;5.40;;;24.60;96.90;;;;;;5096824;28;20543;-84
2021/06/20 07:36:15;;;;;;;6.20;5.80;;;24.60;96.80;;;;;;5109680;27;21374;-84
2021/06/20 07:38:42;;;;;;;5.40;4.57;;;24.70;96.80;;;;;;5114440;27;20204;-87
2021/06/20 07:41:08;;;;;;;5.77;5.37;;;24.70;97.50;;;;;;5112770;28;20474;-87
2021/06/20 07:43:34;;;;;;;4.90;4.70;;;24.80;95.90;;;;;;5090950;28;20815;-85
2021/06/20 07:46:00;;;;;;;5.27;4.87;;;24.80;95.30;;;;;;5089049;28;20247;-84
2021/06/20 07:48:27;;;;;;;5.40;4.93;;;24.90;96.90;;;;;;5112376;28;20290;-87
2021/06/20 07:50:53;;;;;;;4.97;4.67;;;24.90;95.20;;;;;;5111583;28;20196;-83
2021/06/20 07:53:19;;;;;;;5.40;5.00;;;24.80;94.90;;;;;;5090443;28;20508;-84
2021/06/20 07:55:44;;;;;;;4.63;4.30;;;24.70;96.20;;;;;;5110427;28;20469;-84
2021/06/20 07:58:10;;;;;;;5.30;4.90;;;24.70;96.30;;;;;;5093349;28;20184;-84
2021/06/20 08:00:36;;;;;;;4.20;3.97;;;24.50;94.80;;;;;;5108236;28;20190;-84
2021/06/20 08:03:01;;;;;;;4.90;4.50;;;24.40;95.40;;;;;;5104346;28;20212;-84
2021/06/20 08:05:27;;;;;;;5.00;4.50;;;24.40;95.50;;;;;;5093788;28;20183;-83
2021/06/20 08:07:53;;;;;;;4.50;4.30;;;24.40;96.80;;;;;;5110835;28;20199;-85
2021/06/20 08:10:19;;;;;;;5.23;4.50;;;24.40;94.70;;;;;;5103411;28;20169;-84
2021/06/20 08:12:45;;;;;;;4.80;4.60;;;24.40;95.30;;;;;;5096979;28;20208;-85
2021/06/20 08:15:11;;;;;;;8.10;7.50;;;24.50;95.40;;;;;;5098578;28;20175;-89
2021/06/20 08:17:37;;;;;;;5.33;4.97;;;24.50;95.60;;;;;;5113031;28;20420;-85
2021/06/20 08:20:06;;;;;;;4.40;4.20;;;24.60;95.30;;;;;;5111381;28;20516;-91
2021/06/20 08:22:32;;;;;;;4.37;4.07;;;24.80;94.70;;;;;;5109332;28;20172;-84
2021/06/20 08:24:57;;;;;;;7.93;7.23;;;24.90;94.80;;;;;;5092447;28;20478;-88
2021/06/20 08:27:23;;;;;;;4.43;4.13;;;25.20;93.90;;;;;;5092416;28;20444;-90
2021/06/20 08:29:52;;;;;;;4.63;4.33;;;25.30;94.10;;;;;;5104888;28;20211;-89
2021/06/20 08:32:19;;;;;;;4.07;3.77;;;25.30;92.90;;;;;;5104058;28;20250;-90
2021/06/20 08:34:45;;;;;;;3.87;3.70;;;25.20;92.80;;;;;;5094945;28;20849;-88
2021/06/20 08:37:11;;;;;;;4.67;4.40;;;25.30;92.70;;;;;;5110503;28;20415;-88
2021/06/20 08:39:37;;;;;;;4.50;4.20;;;25.40;93.30;;;;;;5113293;28;20413;-88
2021/06/20 08:42:03;;;;;;;5.97;5.63;;;25.60;93.20;;;;;;5112977;28;20180;-87
2021/06/20 08:44:33;;;;;;;4.90;4.60;;;25.80;92.70;;;;;;5074599;28;20276;-88
2021/06/20 08:47:01;;;;;;;4.70;4.40;;;25.90;92.20;;;;;;5085762;28;20961;-88
2021/06/20 08:49:29;;;;;;;29.70;25.87;;;26.10;93.00;;;;;;5094702;28;20453;-90
2021/06/20 08:51:56;;;;;;;5.03;4.73;;;26.20;93.20;;;;;;5094768;28;20496;-89
2021/06/20 08:54:22;;;;;;;13.37;12.07;;;26.30;91.20;;;;;;5112228;28;20877;-89
2021/06/20 08:56:50;;;;;;;85.30;76.13;;;26.40;90.00;;;;;;5092892;28;20454;-92
2021/06/20 08:59:18;;;;;;;13.60;12.40;;;26.50;90.10;;;;;;5081371;28;20429;-90
2021/06/20 09:01:44;;;;;;;6.20;5.80;;;26.50;89.70;;;;;;5095803;28;20414;-89
2021/06/20 09:04:10;;;;;;;4.80;4.40;;;26.60;87.40;;;;;;5092349;28;20407;-89
2021/06/20 09:06:36;;;;;;;4.80;4.40;;;26.60;86.20;;;;;;5074920;28;20175;-89
2021/06/20 09:09:04;;;;;;;4.87;4.57;;;26.60;84.80;;;;;;5097814;28;20445;-89
2021/06/20 09:11:32;;;;;;;4.77;4.47;;;26.50;83.50;;;;;;5081210;28;20410;-89
2021/06/20 09:14:03;;;;;;;4.60;4.40;;;26.60;84.20;;;;;;5075224;28;20443;-88
2021/06/20 09:16:29;;;;;;;7.10;6.40;;;26.70;86.80;;;;;;5113067;28;20903;-89
2021/06/20 09:18:54;;;;;;;7.70;7.10;;;26.80;85.00;;;;;;5093076;28;20429;-88
2021/06/20 09:21:24;;;;;;;5.00;4.70;;;27.00;87.50;;;;;;5083370;28;20182;-89
2021/06/20 09:23:52;;;;;;;3.97;3.70;;;27.20;87.10;;;;;;5113133;28;20623;-89
2021/06/20 09:26:30;;;;;;;3.47;3.37;;;27.30;82.60;;;;;;5099633;28;20917;-89
2021/06/20 09:28:56;;;;;;;4.10;3.80;;;27.30;79.00;;;;;;5092574;28;20450;-89
2021/06/20 09:31:21;;;;;;;3.60;3.30;;;27.20;80.20;;;;;;5091976;28;21046;-89
2021/06/20 09:33:48;;;;;;;4.10;3.90;;;27.30;79.10;;;;;;5074610;28;20223;-88
2021/06/20 09:36:14;;;;;;;3.00;2.90;;;27.30;78.20;;;;;;5081435;28;20171;-94
2021/06/20 09:38:39;;;;;;;58.43;52.33;;;27.40;77.00;;;;;;5096277;28;20508;-95
2021/06/20 09:41:10;;;;;;;129.43;115.17;;;27.50;78.30;;;;;;5102924;28;20634;-93
2021/06/20 09:43:38;;;;;;;6.70;6.13;;;27.70;80.20;;;;;;5116143;27;20579;-95
2021/06/20 09:46:09;;;;;;;8.10;7.57;;;27.60;78.00;;;;;;5096100;28;20414;-88
2021/06/20 09:48:36;;;;;;;12.37;11.17;;;27.50;81.20;;;;;;5078198;28;20553;-90
2021/06/20 09:51:20;;;;;;;6.40;6.00;;;27.50;77.80;;;;;;5083305;28;20418;-89
2021/06/20 09:53:48;;;;;;;3.80;3.60;;;27.40;79.80;;;;;;5077914;28;20815;-89
2021/06/20 09:56:30;;;;;;;3.60;3.50;;;27.40;77.70;;;;;;5094805;28;20465;-90
2021/06/20 09:59:03;;;;;;;7.20;6.23;;;27.20;76.20;;;;;;5111101;28;20417;-89
2021/06/20 10:01:32;;;;;;;3.93;3.67;;;27.00;79.20;;;;;;5096981;28;20417;-89
2021/06/20 10:03:58;;;;;;;3.30;3.20;;;26.90;78.50;;;;;;5117687;27;20422;-88
2021/06/20 10:06:24;;;;;;;5.40;5.10;;;26.90;78.50;;;;;;5097975;27;20414;-89
2021/06/20 10:08:50;;;;;;;3.53;3.30;;;26.80;79.70;;;;;;5099067;27;20488;-89
2021/06/20 10:11:17;;;;;;;4.00;3.70;;;26.70;78.60;;;;;;5095582;28;20438;-88
2021/06/20 10:13:44;;;;;;;5.23;4.50;;;26.70;78.80;;;;;;5097480;27;20175;-89
2021/06/20 10:16:35;;;;;;;3.57;3.37;;;26.80;81.30;;;;;;5076594;28;20414;-95
2021/06/20 10:19:18;;;;;;;5.50;4.97;;;26.90;80.70;;;;;;5099966;28;20775;-89
2021/06/20 10:22:06;;;;;;;4.60;4.30;;;27.10;82.00;;;;;;5116442;28;20393;-88
2021/06/20 10:24:46;;;;;;;6.03;5.63;;;27.20;79.40;;;;;;5097952;28;20421;-87
2021/06/20 10:27:33;;;;;;;48.73;44.03;;;27.40;76.90;;;;;;5115701;28;20397;-87
2021/06/20 10:30:04;;;;;;;36.83;33.27;;;27.60;76.80;;;;;;5116161;28;20413;-88
2021/06/20 10:32:45;;;;;;;8.03;7.43;;;27.70;76.60;;;;;;5115884;28;20476;-87
2021/06/20 10:35:20;;;;;;;4.57;4.37;;;27.80;74.30;;;;;;5095402;28;20419;-87
2021/06/20 10:37:47;;;;;;;3.50;3.20;;;28.00;73.30;;;;;;5095664;28;20406;-87
2021/06/20 10:40:21;;;;;;;3.40;3.30;;;28.10;74.60;;;;;;5094987;28;20458;-88
2021/06/20 10:42:48;;;;;;;3.40;3.30;;;28.20;76.20;;;;;;5095745;28;20406;-88
2021/06/20 10:45:25;;;;;;;4.67;4.37;;;28.30;74.00;;;;;;5117351;28;20413;-93
2021/06/20 10:47:51;;;;;;;4.00;3.70;;;28.40;74.20;;;;;;5107066;28;20427;-96
2021/06/20 10:50:17;;;;;;;3.60;3.40;;;28.50;75.70;;;;;;5124970;28;20802;-96
2021/06/20 10:52:58;;;;;;;3.23;3.13;;;28.40;70.20;;;;;;5124649;28;20207;-92
2021/06/20 10:55:24;;;;;;;4.37;3.90;;;28.00;70.80;;;;;;5115027;28;20232;-92
2021/06/20 10:57:55;;;;;;;4.57;4.27;;;27.90;72.60;;;;;;5115914;28;20451;-92
2021/06/20 11:00:29;;;;;;;8.90;8.10;;;27.60;71.40;;;;;;5096866;28;20434;-89
2021/06/20 11:03:06;;;;;;;4.40;4.20;;;27.60;72.60;;;;;;5115707;28;20397;-91
2021/06/20 11:05:47;;;;;;;7.30;6.70;;;27.70;74.50;;;;;;5115658;28;20401;-84
2021/06/20 11:08:23;;;;;;;5.17;4.87;;;27.80;74.80;;;;;;5114608;28;20842;-89
2021/06/20 11:10:48;;;;;;;5.87;5.47;;;27.90;76.00;;;;;;5115545;28;20485;-88
2021/06/20 11:13:21;;;;;;;153.03;136.13;;;27.90;75.70;;;;;;5114761;28;20500;-86
2021/06/20 11:15:47;;;;;;;14.30;13.03;;;27.90;72.40;;;;;;5115431;28;20215;-91
2021/06/20 11:18:12;;;;;;;4.73;4.47;;;27.70;72.40;;;;;;5096601;28;20441;-92
2021/06/20 11:20:38;;;;;;;24.47;22.17;;;27.70;73.90;;;;;;5115403;28;20635;-91
2021/06/20 11:23:05;;;;;;;8.40;7.67;;;27.90;72.70;;;;;;5115148;28;20241;-94
2021/06/20 11:25:31;;;;;;;16.93;15.33;;;28.00;76.80;;;;;;5114939;28;20227;-90
2021/06/20 11:27:58;;;;;;;4.27;3.97;;;28.20;76.30;;;;;;5114839;28;20453;-91
2021/06/20 11:30:24;;;;;;;4.83;4.57;;;28.00;71.70;;;;;;5113978;28;20203;-92
2021/06/20 11:32:50;;;;;;;4.47;4.27;;;27.80;76.30;;;;;;5114969;28;20410;-92
2021/06/20 11:35:16;;;;;;;9.43;8.83;;;28.10;76.10;;;;;;5114356;28;20462;-92
2021/06/20 11:37:53;;;;;;;4.07;3.87;;;28.30;76.20;;;;;;5114422;28;20182;-93
2021/06/20 11:40:21;;;;;;;4.43;4.23;;;28.50;70.10;;;;;;5114251;28;20428;-91
2021/06/20 11:42:52;;;;;;;4.10;4.00;;;28.50;71.10;;;;;;5114897;28;20402;-92
2021/06/20 11:45:19;;;;;;;4.60;4.33;;;28.50;70.20;;;;;;5114201;28;20437;-92
2021/06/20 11:47:49;;;;;;;4.00;3.80;;;28.30;68.20;;;;;;5114598;28;20410;-89
2021/06/20 11:50:24;;;;;;;4.73;4.33;;;28.20;71.10;;;;;;5114447;28;20748;-90
2021/06/20 11:53:00;;;;;;;5.00;4.60;;;28.00;69.80;;;;;;5114288;28;20972;-89
2021/06/20 11:55:28;;;;;;;4.63;4.43;;;27.90;71.10;;;;;;5095352;28;20456;-88
2021/06/20 11:57:55;;;;;;;4.27;3.73;;;27.90;73.00;;;;;;5095772;28;20421;-87
2021/06/20 12:00:24;;;;;;;4.10;3.90;;;27.80;73.80;;;;;;5113356;28;20889;-86
2021/06/20 12:03:13;;;;;;;4.30;4.10;;;27.80;74.90;;;;;;5114453;28;20405;-86
2021/06/20 12:06:00;;;;;;;5.07;4.70;;;27.80;76.70;;;;;;5114424;28;20870;-86
2021/06/20 12:08:26;;;;;;;19.13;17.37;;;27.80;78.60;;;;;;5113127;28;20788;-87
2021/06/20 12:10:52;;;;;;;42.33;38.23;;;27.80;78.70;;;;;;5113997;28;20413;-87
2021/06/20 12:13:18;;;;;;;9.57;8.77;;;28.00;79.60;;;;;;5113591;28;20405;-86
2021/06/20 12:15:45;;;;;;;9.63;8.73;;;28.10;79.20;;;;;;5113850;28;20428;-87
2021/06/20 12:18:14;;;;;;;4.73;4.43;;;28.10;79.70;;;;;;5111602;28;20175;-88
2021/06/20 12:20:42;;;;;;;4.73;4.43;;;28.10;71.90;;;;;;5113322;28;20490;-88
2021/06/20 12:23:21;;;;;;;3.97;3.77;;;28.10;70.30;;;;;;5113340;28;20429;-86
2021/06/20 12:25:49;;;;;;;4.40;4.20;;;28.00;71.00;;;;;;5111465;28;20516;-87
2021/06/20 12:28:17;;;;;;;3.80;3.50;;;27.80;73.30;;;;;;5112293;28;20803;-84
2021/06/20 12:30:44;;;;;;;4.50;4.30;;;27.80;71.60;;;;;;5113009;28;20467;-90
2021/06/20 12:33:11;;;;;;;3.60;3.40;;;27.90;71.70;;;;;;5113296;28;20406;-90
2021/06/20 12:35:37;;;;;;;3.73;3.53;;;27.90;71.00;;;;;;5112601;28;20406;-90
2021/06/20 12:38:17;;;;;;;4.30;3.50;;;28.00;71.00;;;;;;5111537;28;20421;-88
2021/06/20 12:40:44;;;;;;;4.13;3.63;;;28.00;69.70;;;;;;5086834;28;20179;-88
2021/06/20 12:43:18;;;;;;;4.20;3.80;;;28.10;73.10;;;;;;5099570;28;20410;-89
2021/06/20 12:45:44;;;;;;;4.00;3.70;;;28.30;72.50;;;;;;5113489;28;20473;-89
2021/06/20 12:48:11;;;;;;;4.70;4.30;;;28.40;70.20;;;;;;5098979;28;20450;-89